»·PEaware :: SWA392 KSAN-KLAS

SWA392 :: KSAN-KLAS

FLIGHT INFORMATION

Flight Status: Arrived
Operator:
Southwest Airlines
More flights by this operator :: More flights under this callsign
Pilot: Alec D. (17934)
Aircraft: BOEING 737-700
(B737)
More flights by this aircraft type
Origin: KSAN San Diego Intl-Lindbergh
United States
Destination: KLAS McCarran Intl
United States
More flights between these airports :: More routes between these airports
Route: +PADRZ2 CHKNN SEBBY YELAH MISEN KEPEC6
File this flight plan on PilotEdge
Remarks:
Altitude:
(Current/Filed)
29,000ft
Speed:
(Current/Filed)
475kts
Departed: 10-Sep-18 07:49 AM
Arrived: 10-Sep-18 08:41 AM
Distance/Time
Traveled:
225nm/0:52
Distance/Time
To Go:
Arrived

Flight Plot

Page will automatically refresh every two minutes.

Flight plan parsing failed; only flown route is shown


Map Options




Map Legend


Flown Route
Filed Route
Departure Airport
Arrival Airport
Navaid (VOR, NDB)
Fix

Horizontal Profiles

Position Reports

Time Latitude Longitude Heading Altitude Ground
Speed
10-Sep-18 07:06 32.732374 -117.195986 309 26ft 0kts
10-Sep-18 07:07 32.732374 -117.195986 309 26ft 0kts
10-Sep-18 07:08 32.732374 -117.195986 309 26ft 0kts
10-Sep-18 07:09 32.732374 -117.195986 309 26ft 0kts
10-Sep-18 07:10 32.732374 -117.195986 309 26ft 0kts
10-Sep-18 07:11 32.732374 -117.195986 309 26ft 0kts
10-Sep-18 07:12 32.732374 -117.195986 309 26ft 0kts
10-Sep-18 07:13 32.732374 -117.195986 309 26ft 0kts
10-Sep-18 07:14 32.732374 -117.195986 309 26ft 0kts
10-Sep-18 07:15 32.732374 -117.195986 309 26ft 0kts
10-Sep-18 07:16 32.732374 -117.195986 309 26ft 0kts
10-Sep-18 07:17 32.732374 -117.195986 309 26ft 0kts
10-Sep-18 07:23 32.732374 -117.195986 309 26ft 0kts
10-Sep-18 07:24 32.732374 -117.195986 309 26ft 0kts
10-Sep-18 07:25 32.732374 -117.195986 309 26ft 0kts
10-Sep-18 07:26 32.732374 -117.195986 309 26ft 0kts
10-Sep-18 07:27 32.732374 -117.195986 309 26ft 0kts
10-Sep-18 07:28 32.732374 -117.195986 309 26ft 0kts
10-Sep-18 07:29 32.732374 -117.195986 309 26ft 0kts
10-Sep-18 07:30 32.732374 -117.195986 309 26ft 0kts
10-Sep-18 07:31 32.732374 -117.195986 309 26ft 0kts
10-Sep-18 07:32 32.732374 -117.195986 309 26ft 0kts
10-Sep-18 07:33 32.732374 -117.195986 309 26ft 0kts
10-Sep-18 07:34 32.732374 -117.195986 309 26ft 0kts
10-Sep-18 07:35 32.732374 -117.195986 309 26ft 0kts
10-Sep-18 07:36 32.732374 -117.195986 309 26ft 0kts
10-Sep-18 07:37 32.732374 -117.195986 309 26ft 0kts
10-Sep-18 07:38 32.732374 -117.195986 309 26ft 0kts
10-Sep-18 07:39 32.732374 -117.195986 309 26ft 0kts
10-Sep-18 07:40 32.732360 -117.195967 309 26ft 1kts
10-Sep-18 07:41 32.732031 -117.195491 309 26ft 0kts
10-Sep-18 07:42 32.732033 -117.195495 309 26ft 0kts
10-Sep-18 07:43 32.732038 -117.195502 309 26ft 0kts
10-Sep-18 07:44 32.732184 -117.195415 54 26ft 0kts
10-Sep-18 07:45 32.732885 -117.194722 21 26ft 16kts
10-Sep-18 07:46 32.732125 -117.187535 105 26ft 27kts
10-Sep-18 07:47 32.730303 -117.179944 104 26ft 20kts
10-Sep-18 07:48 32.729638 -117.176643 83 26ft 0kts
10-Sep-18 07:49 32.729638 -117.176633 83 26ft 0kts
10-Sep-18 07:50 32.730265 -117.176051 285 26ft 0kts
10-Sep-18 07:51 32.739067 -117.210248 292 1476ft 211kts
10-Sep-18 07:52 32.777184 -117.277960 302 6329ft 269kts
10-Sep-18 07:53 32.822482 -117.354051 306 10875ft 302kts
10-Sep-18 07:54 32.879300 -117.441994 307 13839ft 362kts
10-Sep-18 07:55 32.941658 -117.538984 307 14972ft 369kts
10-Sep-18 07:56 33.007954 -117.632156 320 16590ft 374kts
10-Sep-18 07:57 33.091831 -117.710347 322 20068ft 394kts
10-Sep-18 07:58 33.181007 -117.793393 321 22947ft 416kts
10-Sep-18 07:59 33.288002 -117.839863 10 25345ft 439kts
10-Sep-18 08:00 33.394285 -117.762223 31 27512ft 456kts
10-Sep-18 08:01 33.502285 -117.678244 31 28973ft 473kts
10-Sep-18 08:02 33.612729 -117.592134 31 28966ft 474kts
10-Sep-18 08:03 33.723491 -117.505520 31 28977ft 474kts
10-Sep-18 08:04 33.833706 -117.419064 31 28982ft 474kts
10-Sep-18 08:05 33.944108 -117.332185 31 28982ft 474kts
10-Sep-18 08:06 34.036280 -117.259450 31 28984ft 475kts
10-Sep-18 08:07 34.146719 -117.172045 31 28986ft 475kts
10-Sep-18 08:08 34.275540 -117.069734 31 29113ft 475kts
10-Sep-18 08:09 34.386235 -116.981512 31 29185ft 476kts
10-Sep-18 08:10 34.478139 -116.908056 31 29158ft 475kts
10-Sep-18 08:11 34.588735 -116.819399 31 29089ft 476kts
10-Sep-18 08:12 34.699071 -116.730664 31 29006ft 476kts
10-Sep-18 08:13 34.805452 -116.644857 31 27746ft 441kts
10-Sep-18 08:14 34.922655 -116.548545 37 25986ft 430kts
10-Sep-18 08:15 34.993697 -116.468330 40 24573ft 405kts
10-Sep-18 08:16 35.073200 -116.377394 40 22821ft 384kts
10-Sep-18 08:17 35.150313 -116.288927 40 21313ft 375kts
10-Sep-18 08:18 35.225364 -116.202598 40 19827ft 366kts
10-Sep-18 08:19 35.298476 -116.118268 40 18334ft 357kts
10-Sep-18 08:20 35.370148 -116.035383 41 16843ft 349kts
10-Sep-18 08:21 35.439908 -115.954493 42 15560ft 343kts
10-Sep-18 08:22 35.508699 -115.874545 42 14576ft 332kts
10-Sep-18 08:23 35.572314 -115.800441 42 13577ft 309kts
10-Sep-18 08:24 35.634163 -115.728265 43 13022ft 306kts
10-Sep-18 08:25 35.695184 -115.655032 46 13023ft 306kts
10-Sep-18 08:26 35.755891 -115.582199 28 13004ft 306kts
10-Sep-18 08:27 35.839863 -115.570829 2 13020ft 306kts
10-Sep-18 08:28 35.925175 -115.566128 2 13026ft 306kts
10-Sep-18 08:29 35.988894 -115.511433 67 12271ft 292kts
10-Sep-18 08:30 36.017252 -115.419016 69 11023ft 279kts
10-Sep-18 08:31 36.028475 -115.327154 98 10429ft 273kts
10-Sep-18 08:32 36.020864 -115.234135 97 9231ft 272kts
10-Sep-18 08:33 36.016068 -115.140771 94 8445ft 274kts
10-Sep-18 08:34 36.012267 -115.046882 94 7058ft 275kts
10-Sep-18 08:35 36.008011 -114.953074 94 5679ft 272kts
10-Sep-18 08:36 36.003338 -114.862192 93 4993ft 247kts
10-Sep-18 08:37 36.044082 -114.843956 300 5033ft 205kts
10-Sep-18 08:38 36.065501 -114.906683 291 5000ft 193kts
10-Sep-18 08:39 36.074073 -114.964913 266 4716ft 168kts
10-Sep-18 08:40 36.073746 -115.019183 267 3881ft 150kts
10-Sep-18 08:41 36.073705 -115.068373 268 3102ft 138kts
10-Sep-18 08:42 36.073665 -115.117132 269 2366ft 141kts
10-Sep-18 08:43 36.074215 -115.144474 294 2192ft 15kts
10-Sep-18 08:44 36.074301 -115.144702 294 2192ft 0kts
10-Sep-18 08:45 36.076051 -115.146450 357 2192ft 17kts
10-Sep-18 08:46 36.079938 -115.147991 44 2192ft 12kts
10-Sep-18 08:47 36.080215 -115.147439 66 2192ft 0kts
10-Sep-18 08:48 36.080215 -115.147439 66 2192ft 0kts
10-Sep-18 08:49 36.080215 -115.147439 66 2192ft 0kts
10-Sep-18 08:50 36.080215 -115.147439 66 2192ft 0kts

Navigation Log

Ident Type
Flight plan parsing failed, navigation log unavailable